Time;durP1;ratioP1;P1;durP2;ratioP2;P2;SDS_P1;SDS_P2;PMS_P1;PMS_P2;Temp;Humidity;BMP_temperature;BMP_pressure;BME280_temperature;BME280_humidity;BME280_pressure;Samples;Min_cycle;Max_cycle;Signal;HPM_P1;HPM_P2
2022/01/20 00:00:54;;;;;;;19.80;2.75;;;;;;;4.20;100.00;100756.41;5177008;28;20569;-79
2022/01/20 00:03:30;;;;;;;19.17;2.50;;;;;;;4.20;100.00;100753.84;5198258;28;20025;-79
2022/01/20 00:34:13;;;;;;;15.82;2.60;;;;;;;4.00;99.08;100728.13;5209799;28;20021;-80
2022/01/20 00:39:33;;;;;;;16.00;2.40;;;;;;;4.07;98.18;100753.06;5213389;28;20071;-80
2022/01/20 00:42:04;;;;;;;19.75;2.45;;;;;;;4.15;97.74;100764.19;5198164;28;20022;-80
2022/01/20 00:44:34;;;;;;;16.35;2.00;;;;;;;4.14;96.81;100751.31;5196173;28;20018;-80
2022/01/20 00:47:05;;;;;;;9.98;1.80;;;;;;;4.09;96.09;100753.91;5182714;28;20033;-80
2022/01/20 00:49:36;;;;;;;18.67;2.03;;;;;;;4.06;96.64;100745.31;5202755;28;20200;-79
2022/01/20 00:52:07;;;;;;;18.80;2.28;;;;;;;4.08;96.14;100759.97;5198938;28;20109;-79
2022/01/20 00:54:38;;;;;;;13.05;2.00;;;;;;;4.12;95.51;100774.56;5203135;28;20048;-78
2022/01/20 00:57:09;;;;;;;14.88;2.20;;;;;;;4.14;95.12;100777.16;5193896;28;20041;-79
2022/01/20 00:59:39;;;;;;;13.65;2.47;;;;;;;4.14;95.06;100783.19;5197580;28;20038;-79
2022/01/20 01:02:11;;;;;;;12.95;1.83;;;;;;;4.15;94.99;100782.31;5192101;28;20088;-79
2022/01/20 01:04:41;;;;;;;15.43;1.48;;;;;;;4.06;93.86;100790.13;5206703;28;20060;-78
2022/01/20 01:10:01;;;;;;;11.38;2.38;;;;;;;4.06;94.81;100794.44;5204256;28;20068;-79
2022/01/20 01:15:26;;;;;;;14.90;2.25;;;;;;;3.89;96.24;100779.03;5195253;28;20099;-78
2022/01/20 01:23:32;;;;;;;13.45;2.25;;;;;;;3.74;99.48;100781.69;5188067;28;20083;-78
2022/01/20 01:26:05;;;;;;;13.07;2.38;;;;;;;3.75;100.00;100777.41;5190208;28;20033;-79
2022/01/20 01:28:37;;;;;;;18.92;2.55;;;;;;;3.68;100.00;100778.28;5183075;28;20030;-79
2022/01/20 01:31:29;;;;;;;21.88;2.75;;;;;;;3.65;100.00;100781.72;5179301;28;20064;-80
2022/01/20 01:34:02;;;;;;;14.65;2.20;;;;;;;3.73;100.00;100779.09;5195822;28;20028;-79
2022/01/20 01:36:47;;;;;;;17.98;2.75;;;;;;;3.73;100.00;100766.19;5207235;28;20025;-79
2022/01/20 01:39:18;;;;;;;10.85;2.03;;;;;;;3.76;100.00;100769.63;5200421;28;20032;-78
2022/01/20 01:41:48;;;;;;;21.15;2.22;;;;;;;3.73;100.00;100769.66;5196972;28;20085;-79
2022/01/20 01:44:26;;;;;;;16.05;2.38;;;;;;;3.66;100.00;100783.47;5203974;28;20055;-79
2022/01/20 01:46:58;;;;;;;17.67;2.30;;;;;;;3.68;100.00;100780.88;5201407;28;20117;-79
2022/01/20 01:49:28;;;;;;;13.50;2.15;;;;;;;3.62;100.00;100771.41;5190587;28;20032;-79
2022/01/20 01:51:59;;;;;;;16.95;2.40;;;;;;;3.53;100.00;100774.91;5199351;28;20018;-79
2022/01/20 01:54:30;;;;;;;21.25;2.65;;;;;;;3.58;100.00;100774.03;5174735;28;20033;-79
2022/01/20 01:57:05;;;;;;;17.75;2.80;;;;;;;3.58;100.00;100769.72;5193244;28;20053;-79
2022/01/20 01:59:36;;;;;;;;;;;;;;;3.54;100.00;100761.97;5203434;28;20559;-79
2022/01/20 02:02:07;;;;;;;16.63;2.37;;;;;;;3.50;100.00;100756.84;5195458;28;19949;-79
2022/01/20 02:04:37;;;;;;;12.77;2.15;;;;;;;3.58;100.00;100749.91;5192411;28;20269;-79
2022/01/20 02:18:46;;;;;;;21.45;2.72;;;;;;;3.58;100.00;100730.97;5212532;28;20080;-80
2022/01/20 02:21:16;;;;;;;22.63;2.40;;;;;;;3.52;100.00;100726.69;5212057;28;20029;-79
2022/01/20 02:23:48;;;;;;;19.38;2.72;;;;;;;3.59;100.00;100722.34;5204336;28;20029;-79
2022/01/20 02:26:18;;;;;;;24.83;3.03;;;;;;;3.72;100.00;100731.75;5198841;28;20037;-80
2022/01/20 02:28:48;;;;;;;13.07;2.45;;;;;;;3.65;100.00;100735.22;5203111;28;20129;-79
2022/01/20 02:31:19;;;;;;;18.88;2.58;;;;;;;3.66;100.00;100738.69;5198762;28;20025;-79
2022/01/20 02:33:50;;;;;;;19.88;2.15;;;;;;;3.68;100.00;100724.88;5206879;28;20091;-79
2022/01/20 02:36:20;;;;;;;20.40;2.33;;;;;;;3.73;100.00;100732.59;5202796;28;20025;-79
2022/01/20 02:38:58;;;;;;;20.73;2.40;;;;;;;3.73;100.00;100722.25;5211582;28;20036;-80
2022/01/20 02:47:14;;;;;;;24.08;2.67;;;;;;;3.68;100.00;100703.34;5194948;28;20032;-80
2022/01/20 02:49:45;;;;;;;18.42;2.70;;;;;;;3.65;100.00;100699.03;5195478;28;20600;-80
2022/01/20 02:52:16;;;;;;;16.23;2.72;;;;;;;3.64;100.00;100704.25;5195222;28;20026;-78
2022/01/20 02:54:47;;;;;;;16.83;2.28;;;;;;;3.70;100.00;100705.06;5202714;28;20472;-80
2022/01/20 02:57:18;;;;;;;17.60;2.15;;;;;;;3.76;100.00;100686.91;5199531;28;20025;-79
2022/01/20 02:59:48;;;;;;;17.75;2.47;;;;;;;3.79;100.00;100683.47;5201452;28;20030;-80
2022/01/20 03:02:19;;;;;;;9.93;1.85;;;;;;;3.86;100.00;100692.88;5223598;23;20571;-79
2022/01/20 03:04:50;;;;;;;17.67;2.38;;;;;;;3.91;100.00;100684.25;5223941;28;20034;-80
2022/01/20 03:07:21;;;;;;;12.93;1.67;;;;;;;3.85;100.00;100673.06;5227046;28;20025;-81
2022/01/20 03:09:51;;;;;;;12.35;1.80;;;;;;;3.85;100.00;100680.84;5229269;28;20103;-80
2022/01/20 03:12:21;;;;;;;15.18;1.85;;;;;;;3.86;100.00;100678.25;5229972;28;20025;-79
2022/01/20 03:14:51;;;;;;;18.35;2.28;;;;;;;3.83;100.00;100670.53;5228852;28;20032;-79
2022/01/20 03:17:22;;;;;;;19.05;2.10;;;;;;;3.86;100.00;100672.22;5228254;28;20024;-80
2022/01/20 03:19:52;;;;;;;17.13;2.17;;;;;;;3.94;100.00;100671.28;5226302;28;20086;-80
2022/01/20 03:22:22;;;;;;;13.90;2.28;;;;;;;3.91;100.00;100663.56;5229579;28;20059;-80
2022/01/20 03:24:55;;;;;;;16.67;2.15;;;;;;;3.92;100.00;100673.03;5229929;28;20067;-80
2022/01/20 03:27:25;;;;;;;14.45;2.05;;;;;;;3.95;100.00;100667.00;5228234;28;20469;-80
2022/01/20 03:29:56;;;;;;;14.00;2.00;;;;;;;3.93;100.00;100673.91;5227785;28;20029;-80
2022/01/20 03:32:26;;;;;;;15.43;1.73;;;;;;;3.92;100.00;100660.09;5229791;28;20025;-79
2022/01/20 03:34:56;;;;;;;16.75;2.25;;;;;;;3.98;100.00;100669.53;5230997;28;20027;-80
2022/01/20 03:37:26;;;;;;;10.82;2.22;;;;;;;3.99;100.00;100669.50;5229759;28;20033;-79
2022/01/20 03:39:57;;;;;;;11.85;2.17;;;;;;;4.01;100.00;100662.63;5228509;28;20137;-80
2022/01/20 03:42:27;;;;;;;13.13;2.03;;;;;;;4.01;100.00;100659.19;5229641;28;20032;-81
2022/01/20 03:44:58;;;;;;;10.88;1.85;;;;;;;4.04;100.00;100661.72;5227290;28;20056;-80
2022/01/20 03:47:28;;;;;;;20.42;2.30;;;;;;;4.06;100.00;100668.63;5229129;28;20318;-79
2022/01/20 03:52:29;;;;;;;15.20;1.73;;;;;;;3.95;100.00;100662.66;5229520;28;20025;-80
2022/01/20 03:55:00;;;;;;;13.93;1.60;;;;;;;3.99;100.00;100660.91;5229179;28;20033;-80
2022/01/20 03:57:30;;;;;;;8.40;1.15;;;;;;;3.98;100.00;100661.78;5227119;28;20111;-80
2022/01/20 04:00:02;;;;;;;11.05;1.60;;;;;;;3.85;100.00;100661.03;5228140;28;20032;-79
2022/01/20 04:02:32;;;;;;;11.00;1.50;;;;;;;3.74;100.00;100654.19;5227241;28;20029;-79
2022/01/20 04:05:03;;;;;;;5.90;1.45;;;;;;;3.60;100.00;100667.22;5230082;28;20051;-80
2022/01/20 04:07:33;;;;;;;11.25;1.40;;;;;;;3.49;100.00;100675.03;5229658;28;20041;-80
2022/01/20 04:10:04;;;;;;;12.60;1.35;;;;;;;3.49;100.00;100695.69;5231330;28;20029;-80
2022/01/20 04:12:34;;;;;;;11.25;1.50;;;;;;;3.45;100.00;100694.00;5232899;28;20071;-80
2022/01/20 04:15:08;;;;;;;9.40;1.83;;;;;;;3.45;100.00;100692.28;5229006;28;20033;-80
2022/01/20 04:17:41;;;;;;;10.32;1.50;;;;;;;3.44;100.00;100684.53;5228247;28;20306;-81
2022/01/20 04:20:11;;;;;;;7.15;1.58;;;;;;;3.49;100.00;100680.19;5228253;28;20029;-81
2022/01/20 04:22:41;;;;;;;8.57;1.70;;;;;;;3.48;100.00;100681.06;5227725;28;20529;-80
2022/01/20 04:25:12;;;;;;;10.35;1.48;;;;;;;3.50;100.00;100695.69;5227413;28;20520;-80
2022/01/20 04:27:42;;;;;;;8.80;1.50;;;;;;;3.52;100.00;100691.38;5228269;28;20103;-80
2022/01/20 04:30:12;;;;;;;10.55;1.60;;;;;;;3.59;100.00;100693.06;5228642;28;20120;-80
2022/01/20 04:32:42;;;;;;;4.32;1.13;;;;;;;3.55;100.00;100685.34;5227993;28;20082;-80
2022/01/20 04:35:16;;;;;;;5.65;1.40;;;;;;;3.54;100.00;100693.97;5228885;28;20082;-80
2022/01/20 04:37:51;;;;;;;10.65;1.90;;;;;;;3.56;100.00;100702.56;5229331;28;20020;-80
2022/01/20 04:40:22;;;;;;;10.00;1.70;;;;;;;3.55;100.00;100706.00;5228058;28;20036;-79
2022/01/20 04:42:53;;;;;;;8.70;1.67;;;;;;;3.50;100.00;100712.94;5219496;28;20115;-80
2022/01/20 04:45:31;;;;;;;9.57;1.58;;;;;;;3.48;100.00;100732.72;5229561;28;20071;-80
2022/01/20 04:48:23;;;;;;;8.90;1.10;;;;;;;3.45;100.00;100723.28;5230160;28;20029;-80
2022/01/20 04:59:21;;;;;;;4.25;0.93;;;;;;;3.34;100.00;100742.28;5226078;28;20036;-79
2022/01/20 05:01:51;;;;;;;9.45;1.83;;;;;;;3.34;100.00;100747.44;5225676;28;20029;-79
2022/01/20 05:04:23;;;;;;;6.68;1.05;;;;;;;3.35;100.00;100738.84;5225141;28;20037;-80
2022/01/20 05:06:56;;;;;;;14.52;1.55;;;;;;;3.38;100.00;100749.16;5223801;28;20051;-80
2022/01/20 05:09:27;;;;;;;10.02;1.33;;;;;;;3.35;100.00;100762.06;5224768;28;20429;-80
2022/01/20 05:12:04;;;;;;;12.50;1.88;;;;;;;3.17;100.00;100785.38;5226677;28;20111;-80
2022/01/20 05:14:34;;;;;;;7.53;1.10;;;;;;;2.54;100.00;100754.50;5230799;28;20486;-80
2022/01/20 05:17:05;;;;;;;10.30;1.58;;;;;;;2.26;100.00;100768.25;5226742;28;20031;-80
2022/01/20 05:19:35;;;;;;;9.73;1.33;;;;;;;2.28;100.00;100779.41;5224099;28;20276;-79
2022/01/20 05:22:05;;;;;;;11.82;1.45;;;;;;;2.28;100.00;100785.44;5225648;28;20029;-80
2022/01/20 05:24:35;;;;;;;8.57;1.25;;;;;;;2.30;100.00;100791.47;5224198;28;20029;-79
2022/01/20 05:27:06;;;;;;;14.77;1.30;;;;;;;2.39;100.00;100788.91;5224751;28;20029;-79
2022/01/20 05:29:36;;;;;;;11.45;1.38;;;;;;;2.48;100.00;100791.47;5225104;28;20027;-80
2022/01/20 05:32:06;;;;;;;6.85;0.95;;;;;;;2.57;100.00;100786.31;5225711;28;20025;-80
2022/01/20 05:34:37;;;;;;;12.90;1.02;;;;;;;2.64;100.00;100800.91;5224778;28;20020;-79
2022/01/20 05:37:07;;;;;;;9.30;1.30;;;;;;;2.66;100.00;100821.56;5227853;28;20028;-80
2022/01/20 05:39:37;;;;;;;10.32;1.23;;;;;;;2.68;100.00;100832.75;5225478;28;20075;-80
2022/01/20 05:42:08;;;;;;;7.43;1.02;;;;;;;2.77;100.00;100827.56;5226420;28;20025;-80
2022/01/20 05:44:38;;;;;;;5.75;1.30;;;;;;;2.80;100.00;100835.31;5228900;28;20052;-80
2022/01/20 05:47:12;;;;;;;8.55;0.90;;;;;;;2.81;100.00;100849.94;5226169;28;20028;-80
2022/01/20 05:49:43;;;;;;;7.60;1.27;;;;;;;2.84;100.00;100847.38;5226395;28;20479;-80
2022/01/20 05:52:15;;;;;;;11.07;1.60;;;;;;;2.84;100.00;100848.22;5224619;28;20032;-80
2022/01/20 05:54:46;;;;;;;9.15;1.35;;;;;;;2.86;100.00;100850.81;5226461;28;20024;-80
2022/01/20 05:57:16;;;;;;;9.05;1.40;;;;;;;2.80;100.00;100855.94;5228781;28;20013;-80
2022/01/20 05:59:48;;;;;;;11.30;1.33;;;;;;;2.74;100.00;100866.28;5225424;28;20021;-80
2022/01/20 06:02:33;;;;;;;7.15;1.15;;;;;;;2.73;100.00;100865.44;5227258;28;20025;-80
2022/01/20 06:05:04;;;;;;;8.13;1.10;;;;;;;2.74;100.00;100866.28;5219521;28;20079;-80
2022/01/20 06:07:35;;;;;;;8.98;1.25;;;;;;;2.71;100.00;100864.53;5227680;28;20037;-80
2022/01/20 06:10:05;;;;;;;9.20;1.17;;;;;;;2.79;100.00;100880.03;5225698;28;20194;-79
2022/01/20 06:12:35;;;;;;;6.45;1.02;;;;;;;2.72;100.00;100879.16;5224839;28;20033;-83
2022/01/20 06:15:06;;;;;;;11.80;1.30;;;;;;;2.74;100.00;100887.78;5224065;28;20017;-82
2022/01/20 06:17:37;;;;;;;11.27;1.52;;;;;;;2.69;100.00;100879.16;5226055;28;20435;-80
2022/01/20 06:20:09;;;;;;;10.10;1.33;;;;;;;2.73;100.00;100885.19;5225106;28;20024;-81
2022/01/20 06:22:40;;;;;;;7.72;1.25;;;;;;;2.63;100.00;100876.59;5225729;28;20193;-79
2022/01/20 06:25:10;;;;;;;9.75;1.45;;;;;;;2.60;100.00;100888.63;5223684;28;20075;-80
2022/01/20 06:27:41;;;;;;;8.93;1.50;;;;;;;2.63;100.00;100898.94;5225372;28;20032;-81
2022/01/20 06:30:12;;;;;;;12.43;1.67;;;;;;;2.63;100.00;100909.25;5224844;28;20020;-81
2022/01/20 06:32:43;;;;;;;6.40;1.20;;;;;;;2.59;100.00;100910.13;5224641;28;20029;-81
2022/01/20 06:35:13;;;;;;;12.05;2.22;;;;;;;2.52;100.00;100913.56;5225701;28;20054;-81
2022/01/20 06:37:44;;;;;;;12.27;1.65;;;;;;;2.46;100.00;100923.84;5225347;28;20486;-80
2022/01/20 06:40:14;;;;;;;7.72;1.23;;;;;;;2.48;100.00;100914.41;5225928;28;20029;-80
2022/01/20 06:42:45;;;;;;;10.35;1.27;;;;;;;2.46;100.00;100931.56;5224748;28;20035;-81
2022/01/20 06:45:17;;;;;;;11.00;1.85;;;;;;;2.37;100.00;100928.97;5224920;28;20025;-81
2022/01/20 06:47:48;;;;;;;6.97;1.50;;;;;;;2.24;100.00;100945.25;5223114;28;20029;-80
2022/01/20 06:50:18;;;;;;;9.00;1.00;;;;;;;2.25;100.00;100950.44;5223653;28;20033;-80
2022/01/20 06:52:49;;;;;;;6.50;1.17;;;;;;;2.18;100.00;100952.97;5222383;28;20068;-82
2022/01/20 06:55:20;;;;;;;14.32;1.50;;;;;;;2.09;100.00;100958.97;5221800;28;20051;-82
2022/01/20 06:57:50;;;;;;;10.95;1.65;;;;;;;2.08;100.00;100964.09;5223708;28;20029;-80
2022/01/20 07:00:23;;;;;;;7.93;1.10;;;;;;;2.11;100.00;100971.84;5226659;28;20069;-79
2022/01/20 07:02:53;;;;;;;13.07;1.75;;;;;;;2.07;100.00;100977.84;5222051;28;20518;-81
2022/01/20 07:05:24;;;;;;;8.07;1.15;;;;;;;2.06;100.00;100981.28;5226999;28;20025;-82
2022/01/20 07:07:54;;;;;;;8.02;1.42;;;;;;;2.02;100.00;100989.84;5226670;28;20029;-81
2022/01/20 07:10:24;;;;;;;8.40;1.65;;;;;;;2.00;100.00;100996.72;5226788;28;20086;-80
2022/01/20 07:12:55;;;;;;;11.55;1.85;;;;;;;1.97;100.00;101007.00;5227590;28;20464;-81
2022/01/20 07:15:25;;;;;;;10.30;1.38;;;;;;;1.92;100.00;101014.72;5226152;28;20119;-83
2022/01/20 07:17:56;;;;;;;10.02;1.17;;;;;;;1.93;100.00;101020.72;5228185;28;20421;-83
2022/01/20 07:20:26;;;;;;;13.75;1.40;;;;;;;1.92;100.00;101008.69;5227790;28;20048;-81
2022/01/20 07:22:56;;;;;;;13.85;1.60;;;;;;;1.97;100.00;101022.47;5226777;28;20513;-80
2022/01/20 07:25:26;;;;;;;11.48;1.90;;;;;;;1.97;100.00;101028.47;5227396;28;20039;-83
2022/01/20 07:27:57;;;;;;;9.10;1.73;;;;;;;2.03;100.00;101027.66;5227409;28;20103;-82
2022/01/20 07:30:27;;;;;;;13.38;1.75;;;;;;;2.01;100.00;101027.63;5226762;28;20249;-80
2022/01/20 07:33:02;;;;;;;7.80;1.75;;;;;;;2.02;100.00;101031.09;5227464;28;20036;-80
2022/01/20 07:35:32;;;;;;;14.65;2.05;;;;;;;2.02;100.00;101029.34;5226463;28;20039;-83
2022/01/20 07:38:04;;;;;;;12.18;1.80;;;;;;;2.07;100.00;101042.28;5225711;28;20025;-83
2022/01/20 07:40:34;;;;;;;10.48;1.55;;;;;;;2.02;99.61;101033.66;5225121;28;20024;-83
2022/01/20 07:43:05;;;;;;;6.88;1.73;;;;;;;1.95;99.31;101039.63;5225195;28;20025;-82
2022/01/20 07:45:35;;;;;;;9.85;1.58;;;;;;;2.03;99.61;101038.81;5227356;28;20029;-82
2022/01/20 07:48:06;;;;;;;12.75;1.70;;;;;;;2.08;100.00;101033.69;5225513;28;20094;-81
2022/01/20 07:50:36;;;;;;;10.30;1.52;;;;;;;2.12;99.75;101043.16;5225122;28;20194;-81
2022/01/20 07:53:07;;;;;;;15.40;1.95;;;;;;;2.23;99.88;101041.50;5227826;28;20021;-81
2022/01/20 07:55:38;;;;;;;11.60;2.40;;;;;;;2.35;99.87;101039.00;5227514;28;20021;-80
2022/01/20 07:58:09;;;;;;;12.90;1.70;;;;;;;2.47;99.34;101036.50;5227062;28;20032;-82
2022/01/20 08:00:39;;;;;;;14.35;1.73;;;;;;;2.59;99.36;101046.81;5225559;28;20292;-81
2022/01/20 08:03:10;;;;;;;11.07;1.10;;;;;;;2.71;99.09;101049.47;5224881;28;20485;-80
2022/01/20 08:05:40;;;;;;;11.00;1.40;;;;;;;2.97;98.14;101064.16;5227111;28;20059;-81
2022/01/20 08:08:10;;;;;;;9.57;1.33;;;;;;;3.23;95.63;101069.38;5227171;28;20044;-81
2022/01/20 08:10:41;;;;;;;10.32;1.42;;;;;;;3.30;95.05;101077.16;5224526;28;20064;-80
2022/01/20 08:13:11;;;;;;;12.25;1.48;;;;;;;3.45;93.71;101091.78;5225503;28;20036;-83
2022/01/20 08:15:41;;;;;;;7.85;1.50;;;;;;;3.75;92.80;101080.63;5224576;28;20342;-83
2022/01/20 08:18:12;;;;;;;13.13;1.45;;;;;;;3.71;91.01;101080.63;5226855;28;20033;-82
2022/01/20 08:20:42;;;;;;;6.72;1.40;;;;;;;4.44;90.00;101096.03;5226112;28;20489;-81
2022/01/20 08:23:12;;;;;;;7.47;1.15;;;;;;;4.37;88.93;101085.72;5226737;28;20284;-81
2022/01/20 08:25:43;;;;;;;8.20;1.67;;;;;;;4.56;88.10;101085.66;5224288;28;20031;-82
2022/01/20 08:28:13;;;;;;;9.95;1.40;;;;;;;4.48;87.66;101083.97;5224044;28;20048;-82
2022/01/20 08:30:43;;;;;;;8.75;1.30;;;;;;;4.59;85.82;101084.75;5225190;28;20017;-83
2022/01/20 08:33:14;;;;;;;9.27;2.15;;;;;;;4.60;84.67;101089.94;5225155;28;20101;-82
2022/01/20 08:35:45;;;;;;;11.80;1.52;;;;;;;4.82;84.81;101094.16;5226617;28;20032;-81
2022/01/20 08:38:15;;;;;;;14.00;1.60;;;;;;;5.07;83.53;101098.38;5224915;28;20043;-81
2022/01/20 08:40:47;;;;;;;10.27;1.60;;;;;;;5.02;84.26;101089.78;5225849;28;20474;-82
2022/01/20 08:43:17;;;;;;;14.88;2.20;;;;;;;4.60;84.90;101092.53;5224529;28;20028;-81
2022/01/20 08:45:48;;;;;;;10.25;1.60;;;;;;;4.64;84.38;101091.66;5226072;28;20498;-81
2022/01/20 08:48:18;;;;;;;16.20;1.95;;;;;;;4.79;84.14;101094.19;5225586;28;20450;-81
2022/01/20 08:50:49;;;;;;;9.70;1.20;;;;;;;4.59;85.49;101082.19;5226087;28;20478;-81
2022/01/20 08:53:19;;;;;;;7.35;1.60;;;;;;;4.17;86.90;101100.41;5226454;28;20135;-81
2022/01/20 08:55:49;;;;;;;10.50;2.10;;;;;;;4.24;87.63;101102.09;5224546;28;20025;-81
2022/01/20 08:58:20;;;;;;;7.47;1.33;;;;;;;3.62;90.36;101101.31;5225205;28;20441;-82
2022/01/20 09:00:50;;;;;;;12.95;1.90;;;;;;;3.70;92.01;101121.13;5223704;28;20055;-81
2022/01/20 09:03:22;;;;;;;14.98;2.13;;;;;;;3.45;92.89;101122.78;5224329;28;20017;-79
2022/01/20 09:05:52;;;;;;;12.02;2.33;;;;;;;3.29;93.52;101121.91;5220843;28;20104;-80
2022/01/20 09:08:23;;;;;;;12.20;2.08;;;;;;;3.35;93.91;101109.00;5225168;28;20582;-81
2022/01/20 09:10:55;;;;;;;8.73;1.70;;;;;;;3.25;93.74;101102.13;5225338;28;20024;-81
2022/01/20 09:16:14;;;;;;;12.15;2.50;;;;;;;3.43;94.33;101096.97;5225210;28;20047;-80
2022/01/20 09:18:45;;;;;;;12.02;2.58;;;;;;;3.35;94.16;101084.91;5225896;28;20645;-80
2022/01/20 09:21:20;;;;;;;15.45;2.33;;;;;;;3.33;93.76;101092.66;5225526;28;20045;-80
2022/01/20 09:23:51;;;;;;;8.43;2.00;;;;;;;3.36;93.99;101091.81;5224507;28;20035;-79
2022/01/20 09:26:22;;;;;;;10.48;1.75;;;;;;;3.18;93.67;101089.19;5225658;28;20025;-80
2022/01/20 09:28:53;;;;;;;26.48;4.93;;;;;;;3.38;93.49;101097.81;5224448;28;20024;-81
2022/01/20 09:31:25;;;;;;;13.43;2.10;;;;;;;3.29;93.97;101102.97;5226388;28;20021;-81
2022/01/20 09:33:56;;;;;;;17.38;2.63;;;;;;;3.47;93.41;101101.28;5226117;28;20390;-79
2022/01/20 09:36:26;;;;;;;12.35;1.90;;;;;;;3.24;93.85;101115.88;5225587;28;20032;-81
2022/01/20 09:38:56;;;;;;;12.45;2.30;;;;;;;3.51;93.16;101122.81;5224722;28;20021;-81
2022/01/20 09:41:27;;;;;;;11.52;2.17;;;;;;;3.55;93.11;101114.22;5227869;28;20135;-81
2022/01/20 09:43:57;;;;;;;13.18;1.90;;;;;;;3.34;93.58;101135.69;5224715;28;20107;-80
2022/01/20 09:46:28;;;;;;;9.70;1.90;;;;;;;3.35;94.35;101131.41;5225601;28;20609;-81
2022/01/20 09:48:58;;;;;;;9.20;2.40;;;;;;;3.25;94.57;101145.13;5224633;28;20410;-80
2022/01/20 09:51:29;;;;;;;11.50;2.47;;;;;;;3.37;95.23;101135.69;5224504;28;20028;-80
2022/01/20 09:53:59;;;;;;;12.93;1.95;;;;;;;3.31;94.54;101127.06;5224130;28;20029;-81
2022/01/20 09:56:31;;;;;;;14.13;3.83;;;;;;;3.63;94.91;101127.13;5226492;28;20086;-79
2022/01/20 09:59:02;;;;;;;28.02;9.20;;;;;;;3.66;93.60;101134.91;5225194;28;20024;-82
2022/01/20 10:01:44;;;;;;;15.75;3.58;;;;;;;3.82;93.03;101128.84;5225111;28;20025;-81
2022/01/20 10:04:41;;;;;;;11.10;2.80;;;;;;;3.76;93.31;101141.78;5224404;28;20021;-80
2022/01/20 10:07:13;;;;;;;13.80;3.10;;;;;;;3.70;93.11;101131.47;5224303;28;20087;-80
2022/01/20 10:09:47;;;;;;;17.38;2.25;;;;;;;3.54;93.35;101128.00;5226290;28;20028;-80
2022/01/20 10:12:19;;;;;;;14.70;3.22;;;;;;;3.85;92.84;101126.31;5224421;28;20635;-80
2022/01/20 10:14:53;;;;;;;10.35;2.00;;;;;;;4.18;92.83;101126.28;5224219;28;20322;-79
2022/01/20 10:17:29;;;;;;;11.63;2.90;;;;;;;4.03;91.96;101123.72;5221339;28;20049;-80
2022/01/20 10:20:05;;;;;;;8.05;1.98;;;;;;;3.81;91.59;101119.38;5226735;28;20113;-79
2022/01/20 10:22:36;;;;;;;;;;;;;;;3.80;91.55;101127.16;5226858;28;20037;-79
2022/01/20 10:25:12;;;;;;;9.00;1.83;;;;;;;3.75;91.53;101129.72;5225266;28;19913;-80
2022/01/20 10:27:57;;;;;;;8.45;2.00;;;;;;;3.69;92.78;101134.91;5225853;28;20029;-80
2022/01/20 10:30:30;;;;;;;14.50;2.30;;;;;;;3.75;92.71;101134.06;5223064;28;20020;-79
2022/01/20 10:33:01;;;;;;;14.18;2.58;;;;;;;3.55;92.55;101124.56;5226045;28;20036;-79
2022/01/20 10:35:33;;;;;;;9.23;2.50;;;;;;;3.58;93.39;101132.28;5229856;28;20059;-79
2022/01/20 10:38:17;;;;;;;9.57;2.00;;;;;;;3.68;92.95;101124.56;5229866;28;20025;-81
2022/01/20 10:40:54;;;;;;;10.82;3.13;;;;;;;3.85;93.13;101126.31;5228985;28;20025;-79
2022/01/20 10:43:31;;;;;;;11.65;2.05;;;;;;;3.51;94.16;101123.66;5226264;28;20045;-81
2022/01/20 10:46:06;;;;;;;11.88;1.80;;;;;;;3.51;94.88;101117.66;5230341;28;20028;-78
2022/01/20 10:48:37;;;;;;;10.20;1.80;;;;;;;3.51;95.78;101138.31;5229275;28;20033;-80
2022/01/20 10:51:18;;;;;;;11.05;1.98;;;;;;;3.16;96.99;101137.38;5229313;28;20114;-80
2022/01/20 10:54:07;;;;;;;8.50;1.70;;;;;;;3.30;97.12;101151.16;5230119;28;20032;-80
2022/01/20 10:56:51;;;;;;;8.63;1.50;;;;;;;3.30;95.93;101148.59;5228994;28;20025;-80
2022/01/20 10:59:22;;;;;;;22.50;7.97;;;;;;;3.47;96.49;101139.16;5228746;28;20053;-80
2022/01/20 11:02:08;;;;;;;9.18;1.58;;;;;;;3.36;95.81;101144.31;5228022;28;20024;-80
2022/01/20 11:04:39;;;;;;;7.28;1.45;;;;;;;3.41;95.97;101146.91;5228799;28;20033;-80
2022/01/20 11:07:09;;;;;;;13.05;1.77;;;;;;;3.41;96.40;101155.53;5230557;28;20024;-79
2022/01/20 11:09:45;;;;;;;7.90;1.83;;;;;;;3.28;96.93;101145.13;5227883;28;20065;-80
2022/01/20 11:12:17;;;;;;;9.88;1.95;;;;;;;3.27;96.56;101140.84;5229872;28;20032;-80
2022/01/20 11:14:53;;;;;;;10.52;1.63;;;;;;;3.26;96.57;101131.38;5228347;28;20025;-79
2022/01/20 11:17:27;;;;;;;5.55;1.33;;;;;;;3.21;97.47;101133.94;5224952;28;20017;-80
2022/01/20 11:20:10;;;;;;;8.93;1.88;;;;;;;3.19;98.09;101121.91;5230417;28;20031;-80
2022/01/20 11:23:16;;;;;;;8.63;1.90;;;;;;;3.31;99.34;101124.47;5228213;28;20482;-78
2022/01/20 11:25:47;;;;;;;14.07;2.03;;;;;;;3.20;100.00;101121.03;5164904;28;20023;-79
2022/01/20 11:28:23;;;;;;;4.43;1.52;;;;;;;3.26;100.00;101126.19;5213795;28;20282;-81
2022/01/20 11:30:59;;;;;;;7.43;1.73;;;;;;;2.97;100.00;101105.47;5228197;28;20025;-80
2022/01/20 11:33:41;;;;;;;4.88;1.80;;;;;;;2.91;100.00;101112.31;5229771;28;20021;-80
2022/01/20 11:36:23;;;;;;;7.13;1.85;;;;;;;3.00;100.00;101120.97;5228111;28;20029;-80
2022/01/20 11:39:00;;;;;;;10.10;2.00;;;;;;;3.01;100.00;101119.25;5224778;28;20112;-81
2022/01/20 11:41:40;;;;;;;7.63;1.85;;;;;;;2.94;100.00;101107.16;5228129;28;20031;-78
2022/01/20 11:44:13;;;;;;;15.70;2.58;;;;;;;2.91;100.00;101112.31;5227841;28;20070;-79
2022/01/20 11:46:44;;;;;;;14.68;2.20;;;;;;;2.81;100.00;101120.88;5227497;28;20012;-81
2022/01/20 11:49:18;;;;;;;9.73;1.73;;;;;;;2.80;100.00;101129.47;5229625;28;20035;-81
2022/01/20 11:51:58;;;;;;;13.02;2.05;;;;;;;2.92;100.00;101124.38;5228964;28;20031;-80
2022/01/20 11:54:35;;;;;;;7.22;1.38;;;;;;;2.82;100.00;101123.47;5225874;28;20021;-81
2022/01/20 11:57:14;;;;;;;9.10;3.20;;;;;;;3.21;100.00;101121.03;5227816;28;20057;-79
2022/01/20 11:59:45;;;;;;;10.45;2.40;;;;;;;3.02;100.00;101116.66;5226754;28;20025;-77
2022/01/20 12:02:35;;;;;;;7.05;1.92;;;;;;;3.14;99.76;101113.25;5227737;28;20040;-80
2022/01/20 12:05:28;;;;;;;14.43;2.20;;;;;;;3.26;97.79;101123.63;5224841;28;20025;-80
2022/01/20 12:08:15;;;;;;;13.90;1.92;;;;;;;3.37;96.92;101098.69;5224331;28;20063;-79
2022/01/20 12:11:07;;;;;;;6.15;1.70;;;;;;;3.18;95.81;101090.03;5226600;28;20024;-80
2022/01/20 12:13:55;;;;;;;9.85;1.58;;;;;;;3.11;96.31;101084.84;5227607;28;20031;-79
2022/01/20 12:16:25;;;;;;;11.57;1.77;;;;;;;3.19;96.86;101090.91;5226025;28;20446;-81
2022/01/20 12:18:58;;;;;;;16.67;4.85;;;;;;;3.18;95.73;101108.09;5227478;28;20029;-79
2022/01/20 12:21:30;;;;;;;30.08;8.25;;;;;;;3.32;94.99;101097.78;5227616;28;20091;-78
2022/01/20 12:24:00;;;;;;;13.95;4.10;;;;;;;3.25;95.10;101096.06;5228726;28;20028;-78
2022/01/20 12:26:35;;;;;;;13.32;2.55;;;;;;;3.24;96.61;101097.81;5228768;28;20036;-79
2022/01/20 12:29:08;;;;;;;16.42;4.60;;;;;;;3.16;97.07;101119.31;5228848;28;20549;-81
2022/01/20 12:31:53;;;;;;;12.93;3.10;;;;;;;3.09;98.10;101122.72;5226982;28;20033;-81
2022/01/20 12:34:24;;;;;;;15.60;4.07;;;;;;;2.92;98.48;101098.56;5224096;28;20025;-79
2022/01/20 12:36:58;;;;;;;15.52;4.32;;;;;;;2.98;99.39;101111.47;5228145;28;20044;-80
2022/01/20 12:39:32;;;;;;;10.52;2.53;;;;;;;2.92;100.00;101103.72;5227463;28;20029;-81
2022/01/20 12:42:06;;;;;;;12.20;2.42;;;;;;;2.90;100.00;101100.28;5225337;28;20029;-81
2022/01/20 12:44:47;;;;;;;10.65;2.45;;;;;;;2.72;100.00;101110.53;5226136;28;20025;-79
2022/01/20 12:47:27;;;;;;;11.40;2.00;;;;;;;2.75;100.00;101118.28;5228163;28;20029;-79
2022/01/20 12:49:59;;;;;;;10.88;1.88;;;;;;;2.71;100.00;101122.56;5228022;28;20029;-83
2022/01/20 12:52:31;;;;;;;9.52;2.22;;;;;;;2.85;100.00;101117.47;5228680;28;20036;-78
2022/01/20 12:55:01;;;;;;;12.15;1.67;;;;;;;2.57;100.00;101116.50;5226185;28;20052;-77
2022/01/20 12:57:32;;;;;;;7.55;1.05;;;;;;;2.46;100.00;101117.25;5226861;28;20033;-79
2022/01/20 13:00:04;;;;;;;6.78;1.58;;;;;;;2.38;100.00;101124.97;5227580;28;20025;-79
2022/01/20 13:02:35;;;;;;;6.85;1.35;;;;;;;2.32;100.00;101124.94;5227139;28;20032;-80